createdAt,value
2023-04-14T00:00:30.195Z,1005.06
2023-04-14T00:01:30.536Z,1005.02
2023-04-14T00:02:30.334Z,1005.02
2023-04-14T00:03:30.406Z,1004.96
2023-04-14T00:05:30.450Z,1004.97
2023-04-14T00:06:30.371Z,1004.98
2023-04-14T00:07:30.405Z,1004.94
2023-04-14T00:09:30.716Z,1004.95
2023-04-14T00:11:30.543Z,1004.96
2023-04-14T00:12:30.546Z,1005.00
2023-04-14T00:14:30.608Z,1004.93
2023-04-14T00:15:30.642Z,1004.94
2023-04-14T00:16:30.948Z,1004.94
2023-04-14T00:17:30.712Z,1004.91
2023-04-14T00:18:30.727Z,1004.93
2023-04-14T00:19:30.764Z,1005.00
2023-04-14T00:21:30.816Z,1005.03
2023-04-14T00:22:30.852Z,1005.07
2023-04-14T00:23:31.180Z,1005.06
2023-04-14T00:24:30.908Z,1005.06
2023-04-14T00:25:30.937Z,1005.05
2023-04-14T00:26:30.969Z,1005.03
2023-04-14T00:27:31.037Z,1005.06
2023-04-14T00:28:31.024Z,1005.02
2023-04-14T00:29:31.051Z,1005.09
2023-04-14T00:30:31.382Z,1005.06
2023-04-14T00:31:31.173Z,1005.09
2023-04-14T00:33:31.186Z,1005.08
2023-04-14T00:34:31.204Z,1005.11
2023-04-14T00:39:31.615Z,1005.09
2023-04-14T00:42:31.438Z,1005.10
2023-04-14T00:43:31.485Z,1005.11
2023-04-14T00:44:31.497Z,1005.19
2023-04-14T00:45:31.528Z,1005.21
2023-04-14T00:46:31.892Z,1005.22
2023-04-14T00:47:31.700Z,1005.26
2023-04-14T00:48:31.614Z,1005.23
2023-04-14T00:49:31.648Z,1005.25
2023-04-14T00:51:31.699Z,1005.26
2023-04-14T00:52:31.734Z,1005.25
2023-04-14T00:53:32.027Z,1005.24
2023-04-14T00:55:31.819Z,1005.25
2023-04-14T00:56:31.855Z,1005.23
2023-04-14T00:57:31.890Z,1005.26
2023-04-14T00:58:31.919Z,1005.26
2023-04-14T00:59:31.958Z,1005.27
2023-04-14T01:00:32.220Z,1005.27
2023-04-14T01:01:32.045Z,1005.32
2023-04-14T01:02:32.147Z,1005.33
2023-04-14T01:03:32.157Z,1005.31
2023-04-14T01:04:45.139Z,1005.35
2023-04-14T01:05:32.122Z,1005.39
2023-04-14T01:09:32.530Z,1005.40
2023-04-14T01:11:32.292Z,1005.44
2023-04-14T01:12:32.332Z,1005.42
2023-04-14T01:13:32.345Z,1005.46
2023-04-14T01:14:32.386Z,1005.47
2023-04-14T01:15:32.683Z,1005.48
2023-04-14T01:16:32.483Z,1005.48
2023-04-14T01:17:32.516Z,1005.45
2023-04-14T01:18:32.499Z,1005.51
2023-04-14T01:19:32.521Z,1005.49
2023-04-14T01:20:32.563Z,1005.52
2023-04-14T01:21:32.586Z,1005.51
2023-04-14T01:22:32.920Z,1005.48
2023-04-14T01:23:32.756Z,1005.52
2023-04-14T01:25:32.702Z,1005.52
2023-04-14T01:27:32.759Z,1005.53
2023-04-14T01:28:32.803Z,1005.51
2023-04-14T01:29:33.125Z,1005.55
2023-04-14T01:30:32.854Z,1005.58
2023-04-14T01:31:32.950Z,1005.51
2023-04-14T01:32:33.035Z,1005.57
2023-04-14T01:33:32.935Z,1005.57
2023-04-14T01:34:32.971Z,1005.55
2023-04-14T01:35:32.999Z,1005.61
2023-04-14T01:36:33.336Z,1005.60
2023-04-14T01:37:33.055Z,1005.57
2023-04-14T01:38:33.158Z,1005.62
2023-04-14T01:39:33.128Z,1005.65
2023-04-14T01:40:33.159Z,1005.67
2023-04-14T01:41:33.182Z,1005.69
2023-04-14T01:42:33.199Z,1005.65
2023-04-14T01:43:33.533Z,1005.66
2023-04-14T01:44:33.258Z,1005.67
2023-04-14T01:45:33.337Z,1005.71
2023-04-14T01:46:33.315Z,1005.67
2023-04-14T01:47:33.426Z,1005.66
2023-04-14T01:48:33.381Z,1005.69
2023-04-14T01:49:33.450Z,1005.68
2023-04-14T01:51:33.766Z,1005.66
2023-04-14T01:52:33.493Z,1005.69
2023-04-14T01:54:33.548Z,1005.72
2023-04-14T01:56:33.610Z,1005.72
2023-04-14T01:57:33.650Z,1005.79
2023-04-14T01:59:34.000Z,1005.73
2023-04-14T02:04:40.163Z,1005.78
2023-04-14T02:05:33.895Z,1005.74
2023-04-14T02:06:34.213Z,1005.72
2023-04-14T02:09:34.010Z,1005.73
2023-04-14T02:10:34.015Z,1005.73
2023-04-14T02:11:34.052Z,1005.71
2023-04-14T02:12:34.084Z,1005.71
2023-04-14T02:13:34.432Z,1005.72
2023-04-14T02:16:34.243Z,1005.72
2023-04-14T02:17:34.259Z,1005.75
2023-04-14T02:18:34.252Z,1005.73
2023-04-14T02:19:34.283Z,1005.70
2023-04-14T02:20:34.729Z,1005.72
2023-04-14T02:21:34.342Z,1005.68
2023-04-14T02:22:34.363Z,1005.69
2023-04-14T02:23:34.404Z,1005.75
2023-04-14T02:24:34.435Z,1005.75
2023-04-14T02:25:34.461Z,1005.73
2023-04-14T02:26:34.506Z,1005.78
2023-04-14T02:27:34.813Z,1005.73
2023-04-14T02:29:34.578Z,1005.74
2023-04-14T02:30:34.628Z,1005.77
2023-04-14T02:32:34.687Z,1005.79
2023-04-14T02:33:34.687Z,1005.78
2023-04-14T02:34:37.454Z,1005.81
2023-04-14T02:35:34.755Z,1005.81
2023-04-14T02:36:34.794Z,1005.77
2023-04-14T02:37:34.829Z,1005.83
2023-04-14T02:38:34.831Z,1005.79
2023-04-14T02:39:34.863Z,1005.82
2023-04-14T02:41:35.223Z,1005.83
2023-04-14T02:42:34.961Z,1005.81
2023-04-14T02:43:34.984Z,1005.85
2023-04-14T02:44:35.009Z,1005.86
2023-04-14T02:46:35.098Z,1005.83
2023-04-14T02:47:35.130Z,1005.86
2023-04-14T02:48:35.424Z,1005.83
2023-04-14T02:49:35.165Z,1005.83
2023-04-14T02:50:35.402Z,1005.83
2023-04-14T02:51:35.224Z,1005.87
2023-04-14T02:52:35.280Z,1005.82
2023-04-14T02:53:35.273Z,1005.83
2023-04-14T02:55:35.630Z,1005.84
2023-04-14T02:56:35.372Z,1005.83
2023-04-14T02:57:35.384Z,1005.84
2023-04-14T02:58:35.422Z,1005.82
2023-04-14T02:59:35.446Z,1005.84
2023-04-14T03:01:35.812Z,1005.84
2023-04-14T03:02:35.612Z,1005.86
2023-04-14T03:03:35.624Z,1005.82
2023-04-14T03:04:35.786Z,1005.86
2023-04-14T03:05:35.624Z,1005.88
2023-04-14T03:06:35.651Z,1005.87
2023-04-14T03:07:35.681Z,1005.90
2023-04-14T03:08:36.034Z,1005.89
2023-04-14T03:09:35.745Z,1005.91
2023-04-14T03:10:35.770Z,1005.90
2023-04-14T03:12:35.838Z,1005.89
2023-04-14T03:13:35.865Z,1005.88
2023-04-14T03:14:36.135Z,1005.84
2023-04-14T03:16:35.960Z,1005.84
2023-04-14T03:17:36.010Z,1005.88
2023-04-14T03:19:36.035Z,1005.88
2023-04-14T03:21:36.336Z,1005.88
2023-04-14T03:22:36.132Z,1005.91
2023-04-14T03:25:36.225Z,1005.90
2023-04-14T03:27:36.560Z,1005.86
2023-04-14T03:28:38.174Z,1005.85
2023-04-14T03:31:36.455Z,1005.82
2023-04-14T03:32:36.449Z,1005.78
2023-04-14T03:33:36.737Z,1005.78
2023-04-14T03:34:36.465Z,1005.77
2023-04-14T03:39:36.875Z,1005.79
2023-04-14T03:40:36.642Z,1005.77
2023-04-14T03:41:36.741Z,1005.76
2023-04-14T03:42:36.696Z,1005.75
2023-04-14T03:44:36.755Z,1005.75
2023-04-14T03:45:36.783Z,1005.76
2023-04-14T03:46:37.058Z,1005.80
2023-04-14T03:47:36.892Z,1005.80
2023-04-14T03:48:36.866Z,1005.81
2023-04-14T03:49:36.907Z,1005.80
2023-04-14T03:50:36.950Z,1005.82
2023-04-14T03:51:36.960Z,1005.83
2023-04-14T03:53:37.314Z,1005.85
2023-04-14T03:54:37.050Z,1005.87
2023-04-14T03:55:37.075Z,1005.89
2023-04-14T03:56:37.098Z,1005.90
2023-04-14T03:57:37.149Z,1005.89
2023-04-14T03:58:37.163Z,1005.92
2023-04-14T03:59:37.190Z,1005.90
2023-04-14T04:00:37.517Z,1005.95
2023-04-14T04:01:37.273Z,1005.92
2023-04-14T04:02:37.515Z,1005.93
2023-04-14T04:03:37.602Z,1005.92
2023-04-14T04:04:37.450Z,1005.93
2023-04-14T04:05:37.360Z,1005.90
2023-04-14T04:06:37.402Z,1005.91
2023-04-14T04:07:37.717Z,1005.91
2023-04-14T04:09:37.481Z,1005.91
2023-04-14T04:12:37.564Z,1005.95
2023-04-14T04:13:37.622Z,1006.00
2023-04-14T04:14:39.213Z,1005.96
2023-04-14T04:16:37.711Z,1006.03
2023-04-14T04:18:37.742Z,1006.00
2023-04-14T04:19:37.766Z,1006.03
2023-04-14T04:20:37.800Z,1006.03
2023-04-14T04:21:38.132Z,1006.03
2023-04-14T04:22:37.856Z,1006.01
2023-04-14T04:24:37.914Z,1006.08
2023-04-14T04:25:37.937Z,1006.07
2023-04-14T04:26:37.982Z,1006.08
2023-04-14T04:28:38.277Z,1006.13
2023-04-14T04:29:38.080Z,1006.11
2023-04-14T04:30:38.091Z,1006.10
2023-04-14T04:31:38.140Z,1006.08
2023-04-14T04:32:38.194Z,1006.11
2023-04-14T04:35:38.536Z,1006.09
2023-04-14T04:36:38.262Z,1006.10
2023-04-14T04:37:38.290Z,1006.05
2023-04-14T04:38:38.316Z,1006.10
2023-04-14T04:39:38.345Z,1006.10
2023-04-14T04:40:38.403Z,1006.12
2023-04-14T04:41:38.713Z,1006.12
2023-04-14T04:42:38.433Z,1006.13
2023-04-14T04:43:38.498Z,1006.14
2023-04-14T04:44:38.491Z,1006.12
2023-04-14T04:45:38.552Z,1006.15
2023-04-14T04:46:38.620Z,1006.11
2023-04-14T04:47:38.904Z,1006.13
2023-04-14T04:48:38.611Z,1006.14
2023-04-14T04:51:38.703Z,1006.15
2023-04-14T04:53:39.057Z,1006.19
2023-04-14T04:54:38.792Z,1006.18
2023-04-14T04:55:38.807Z,1006.19
2023-04-14T04:56:38.842Z,1006.21
2023-04-14T04:57:38.869Z,1006.21
2023-04-14T04:59:39.196Z,1006.20
2023-04-14T05:00:38.959Z,1006.21
2023-04-14T05:01:39.062Z,1006.23
2023-04-14T05:02:39.103Z,1006.17
2023-04-14T05:03:39.039Z,1006.20
2023-04-14T05:05:39.411Z,1006.24
2023-04-14T05:06:39.131Z,1006.24
2023-04-14T05:07:39.153Z,1006.27
2023-04-14T05:08:39.187Z,1006.27
2023-04-14T05:09:39.225Z,1006.29
2023-04-14T05:10:39.241Z,1006.27
2023-04-14T05:11:39.268Z,1006.24
2023-04-14T05:13:39.647Z,1006.22
2023-04-14T05:14:39.368Z,1006.25
2023-04-14T05:15:39.422Z,1006.26
2023-04-14T05:16:39.423Z,1006.24
2023-04-14T05:17:39.511Z,1006.30
2023-04-14T05:18:39.476Z,1006.27
2023-04-14T05:19:39.503Z,1006.27
2023-04-14T05:20:39.831Z,1006.25
2023-04-14T05:21:39.565Z,1006.27
2023-04-14T05:23:39.659Z,1006.26
2023-04-14T05:24:39.650Z,1006.28
2023-04-14T05:25:39.675Z,1006.29
2023-04-14T05:27:40.036Z,1006.30
2023-04-14T05:28:39.761Z,1006.30
2023-04-14T05:29:39.890Z,1006.31
2023-04-14T05:30:39.821Z,1006.30
2023-04-14T05:32:39.899Z,1006.34
2023-04-14T05:33:39.927Z,1006.38
2023-04-14T05:35:40.295Z,1006.35
2023-04-14T05:36:40.005Z,1006.36
2023-04-14T05:37:40.023Z,1006.38
2023-04-14T05:38:40.131Z,1006.39
2023-04-14T05:39:40.080Z,1006.37
2023-04-14T05:41:40.443Z,1006.35
2023-04-14T05:43:40.201Z,1006.37
2023-04-14T05:44:40.226Z,1006.39
2023-04-14T05:45:40.258Z,1006.39
2023-04-14T05:46:40.357Z,1006.38
2023-04-14T05:50:40.722Z,1006.39
2023-04-14T05:51:40.434Z,1006.39
2023-04-14T05:52:40.450Z,1006.42
2023-04-14T05:53:40.484Z,1006.42
2023-04-14T05:54:42.562Z,1006.43
2023-04-14T05:55:40.553Z,1006.45
2023-04-14T05:56:40.575Z,1006.43
2023-04-14T05:57:40.860Z,1006.44
2023-04-14T05:58:40.635Z,1006.40
2023-04-14T05:59:40.653Z,1006.40
2023-04-14T06:00:40.687Z,1006.40
2023-04-14T06:01:40.769Z,1006.42
2023-04-14T06:02:40.935Z,1006.41
2023-04-14T06:03:41.061Z,1006.40
2023-04-14T06:04:41.245Z,1006.42
2023-04-14T06:05:40.834Z,1006.38
2023-04-14T06:06:40.889Z,1006.42
2023-04-14T06:08:40.931Z,1006.37
2023-04-14T06:09:40.946Z,1006.41
2023-04-14T06:10:40.993Z,1006.39
2023-04-14T06:11:41.272Z,1006.34
2023-04-14T06:12:41.049Z,1006.36
2023-04-14T06:13:41.161Z,1006.33
2023-04-14T06:14:41.100Z,1006.34
2023-04-14T06:15:41.126Z,1006.36
2023-04-14T06:16:41.179Z,1006.32
2023-04-14T06:17:41.245Z,1006.35
2023-04-14T06:18:41.530Z,1006.31
2023-04-14T06:19:41.285Z,1006.30
2023-04-14T06:20:41.266Z,1006.31
2023-04-14T06:21:41.308Z,1006.33
2023-04-14T06:22:41.341Z,1006.29
2023-04-14T06:24:41.684Z,1006.25
2023-04-14T06:25:41.407Z,1006.32
2023-04-14T06:26:41.445Z,1006.29
2023-04-14T06:27:41.471Z,1006.26
2023-04-14T06:28:43.707Z,1006.24
2023-04-14T06:29:41.524Z,1006.28
2023-04-14T06:30:41.554Z,1006.28
2023-04-14T06:31:41.923Z,1006.23
2023-04-14T06:32:41.679Z,1006.28
2023-04-14T06:34:41.674Z,1006.20
2023-04-14T06:35:41.717Z,1006.21
2023-04-14T06:37:42.060Z,1006.14
2023-04-14T06:38:41.810Z,1006.18
2023-04-14T06:39:41.812Z,1006.20
2023-04-14T06:40:41.852Z,1006.15
2023-04-14T06:41:41.900Z,1006.18
2023-04-14T06:42:41.911Z,1006.19
2023-04-14T06:43:42.248Z,1006.19
2023-04-14T06:44:41.954Z,1006.20
2023-04-14T06:45:42.098Z,1006.22
2023-04-14T06:46:42.024Z,1006.23
2023-04-14T06:47:42.061Z,1006.20
2023-04-14T06:48:42.085Z,1006.20
2023-04-14T06:49:42.402Z,1006.19
2023-04-14T06:50:44.201Z,1006.18
2023-04-14T06:52:42.191Z,1006.16
2023-04-14T06:53:42.222Z,1006.18
2023-04-14T06:54:42.333Z,1006.17
2023-04-14T06:55:42.286Z,1006.13
2023-04-14T06:56:42.607Z,1006.12
2023-04-14T06:57:42.338Z,1006.09
2023-04-14T06:58:42.410Z,1006.09
2023-04-14T06:59:42.411Z,1006.14
2023-04-14T07:00:42.593Z,1006.06
2023-04-14T07:01:42.566Z,1006.07
2023-04-14T07:02:42.555Z,1006.10
2023-04-14T07:03:42.869Z,1006.07
2023-04-14T07:04:42.570Z,1006.06
2023-04-14T07:05:42.567Z,1006.09
2023-04-14T07:06:42.594Z,1006.09
2023-04-14T07:07:42.623Z,1006.07
2023-04-14T07:08:42.649Z,1006.11
2023-04-14T07:09:42.697Z,1006.03
2023-04-14T07:10:43.030Z,1006.05
2023-04-14T07:11:42.746Z,1006.02
2023-04-14T07:12:42.777Z,1006.05
2023-04-14T07:13:42.799Z,1006.05
2023-04-14T07:14:42.867Z,1006.05
2023-04-14T07:15:42.889Z,1006.00
2023-04-14T07:16:42.880Z,1006.00
2023-04-14T07:17:43.247Z,1006.00
2023-04-14T07:18:42.958Z,1005.97
2023-04-14T07:19:42.970Z,1006.00
2023-04-14T07:20:43.007Z,1005.94
2023-04-14T07:21:43.030Z,1005.92
2023-04-14T07:22:43.057Z,1005.87
2023-04-14T07:23:43.090Z,1005.86
2023-04-14T07:24:43.410Z,1005.87
2023-04-14T07:25:43.143Z,1005.85
2023-04-14T07:26:43.202Z,1005.87
2023-04-14T07:27:49.919Z,1005.83
2023-04-14T07:28:43.240Z,1005.86
2023-04-14T07:29:43.320Z,1005.83
2023-04-14T07:30:43.290Z,1005.82
2023-04-14T07:31:43.793Z,1005.81
2023-04-14T07:32:43.400Z,1005.80
2023-04-14T07:33:43.395Z,1005.82
2023-04-14T07:34:43.492Z,1005.81
2023-04-14T07:35:51.145Z,1005.80
2023-04-14T07:36:43.471Z,1005.80
2023-04-14T07:37:43.497Z,1005.79
2023-04-14T07:38:43.870Z,1005.81
2023-04-14T07:39:43.578Z,1005.81
2023-04-14T07:40:43.579Z,1005.77
2023-04-14T07:41:43.610Z,1005.79
2023-04-14T07:42:43.669Z,1005.77
2023-04-14T07:43:43.674Z,1005.80
2023-04-14T07:44:43.709Z,1005.74
2023-04-14T07:46:44.419Z,1005.79
2023-04-14T07:47:43.834Z,1005.79
2023-04-14T07:48:43.844Z,1005.75
2023-04-14T07:49:43.871Z,1005.76
2023-04-14T07:50:43.878Z,1005.73
2023-04-14T07:51:43.933Z,1005.72
2023-04-14T07:52:43.941Z,1005.69
2023-04-14T07:53:44.281Z,1005.70
2023-04-14T07:54:44.006Z,1005.68
2023-04-14T07:55:44.030Z,1005.70
2023-04-14T07:56:44.046Z,1005.70
2023-04-14T07:57:44.079Z,1005.68
2023-04-14T07:58:44.251Z,1005.69
2023-04-14T07:59:44.139Z,1005.66
2023-04-14T08:00:44.466Z,1005.67
2023-04-14T08:01:44.311Z,1005.65
2023-04-14T08:02:44.397Z,1005.68
2023-04-14T08:03:45.574Z,1005.70
2023-04-14T08:04:44.288Z,1005.67
2023-04-14T08:05:44.345Z,1005.68
2023-04-14T08:06:44.380Z,1005.69
2023-04-14T08:08:44.695Z,1005.66
2023-04-14T08:09:44.437Z,1005.63
2023-04-14T08:10:44.463Z,1005.69
2023-04-14T08:11:44.505Z,1005.66
2023-04-14T08:12:44.514Z,1005.67
2023-04-14T08:13:44.551Z,1005.65
2023-04-14T08:14:44.691Z,1005.68
2023-04-14T08:15:44.974Z,1005.69
2023-04-14T08:16:44.650Z,1005.64
2023-04-14T08:17:44.772Z,1005.65
2023-04-14T08:18:44.755Z,1005.69
2023-04-14T08:19:44.756Z,1005.69
2023-04-14T08:21:44.773Z,1005.67
2023-04-14T08:22:45.104Z,1005.69
2023-04-14T08:23:44.838Z,1005.70
2023-04-14T08:24:44.864Z,1005.73
2023-04-14T08:25:44.918Z,1005.73
2023-04-14T08:27:44.963Z,1005.72
2023-04-14T08:28:44.983Z,1005.73
2023-04-14T08:29:45.309Z,1005.69
2023-04-14T08:30:45.069Z,1005.67
2023-04-14T08:31:45.142Z,1005.67
2023-04-14T08:33:45.126Z,1005.63
2023-04-14T08:35:37.705Z,1005.66
2023-04-14T08:35:45.199Z,1005.64
2023-04-14T08:36:45.519Z,1005.65
2023-04-14T08:37:45.247Z,1005.65
2023-04-14T08:38:45.272Z,1005.62
2023-04-14T08:39:45.303Z,1005.62
2023-04-14T08:40:45.335Z,1005.64
2023-04-14T08:41:45.381Z,1005.65
2023-04-14T08:42:45.398Z,1005.64
2023-04-14T08:43:45.731Z,1005.65
2023-04-14T08:44:45.457Z,1005.64
2023-04-14T08:45:45.578Z,1005.63
2023-04-14T08:46:45.536Z,1005.61
2023-04-14T08:47:45.557Z,1005.66
2023-04-14T08:48:45.587Z,1005.58
2023-04-14T08:49:45.598Z,1005.61
2023-04-14T08:50:45.955Z,1005.61
2023-04-14T08:51:45.661Z,1005.61
2023-04-14T08:52:45.691Z,1005.62
2023-04-14T08:53:45.775Z,1005.63
2023-04-14T08:54:45.760Z,1005.59
2023-04-14T08:55:45.806Z,1005.59
2023-04-14T08:56:45.814Z,1005.58
2023-04-14T08:58:45.969Z,1005.58
2023-04-14T08:59:45.899Z,1005.57
2023-04-14T09:00:45.968Z,1005.52
2023-04-14T09:01:46.108Z,1005.54
2023-04-14T09:02:46.262Z,1005.52
2023-04-14T09:03:46.294Z,1005.53
2023-04-14T09:04:46.406Z,1005.50
2023-04-14T09:05:46.078Z,1005.51
2023-04-14T09:06:46.109Z,1005.53
2023-04-14T09:07:46.144Z,1005.53
2023-04-14T09:08:46.196Z,1005.52
2023-04-14T09:09:46.197Z,1005.51
2023-04-14T09:10:46.230Z,1005.51
2023-04-14T09:11:46.510Z,1005.50
2023-04-14T09:12:46.287Z,1005.49
2023-04-14T09:13:46.311Z,1005.49
2023-04-14T09:14:46.359Z,1005.50
2023-04-14T09:15:46.378Z,1005.47
2023-04-14T09:16:46.429Z,1005.44
2023-04-14T09:17:46.558Z,1005.44
2023-04-14T09:18:47.245Z,1005.45
2023-04-14T09:20:36.616Z,1005.43
2023-04-14T09:20:46.550Z,1005.41
2023-04-14T09:21:53.482Z,1005.40
2023-04-14T09:22:46.595Z,1005.40
2023-04-14T09:23:46.609Z,1005.39
2023-04-14T09:24:46.942Z,1005.35
2023-04-14T09:25:46.674Z,1005.39
2023-04-14T09:26:46.716Z,1005.32
2023-04-14T09:27:46.737Z,1005.37
2023-04-14T09:28:46.755Z,1005.37
2023-04-14T09:29:46.791Z,1005.38
2023-04-14T09:30:47.124Z,1005.34
2023-04-14T09:31:46.856Z,1005.34
2023-04-14T09:32:46.936Z,1005.34
2023-04-14T09:33:46.938Z,1005.35
2023-04-14T09:34:46.955Z,1005.37
2023-04-14T09:35:46.967Z,1005.33
2023-04-14T09:36:47.340Z,1005.32
2023-04-14T09:37:47.025Z,1005.31
2023-04-14T09:38:47.064Z,1005.32
2023-04-14T09:39:47.087Z,1005.30
2023-04-14T09:41:47.147Z,1005.23
2023-04-14T09:42:47.202Z,1005.25
2023-04-14T09:43:47.507Z,1005.31
2023-04-14T09:44:47.254Z,1005.28
2023-04-14T09:45:47.298Z,1005.27
2023-04-14T09:46:47.382Z,1005.28
2023-04-14T09:47:47.338Z,1005.28
2023-04-14T09:48:47.348Z,1005.29
2023-04-14T09:49:47.429Z,1005.28
2023-04-14T09:50:47.733Z,1005.29
2023-04-14T09:51:47.444Z,1005.28
2023-04-14T09:52:47.472Z,1005.29
2023-04-14T09:53:48.755Z,1005.29
2023-04-14T09:54:47.536Z,1005.26
2023-04-14T09:56:47.593Z,1005.24
2023-04-14T09:57:47.975Z,1005.27
2023-04-14T09:58:47.654Z,1005.28
2023-04-14T09:59:47.684Z,1005.27
2023-04-14T10:00:47.709Z,1005.29
2023-04-14T10:01:47.817Z,1005.28
2023-04-14T10:02:47.826Z,1005.28
2023-04-14T10:03:48.010Z,1005.26
2023-04-14T10:04:48.171Z,1005.27
2023-04-14T10:05:47.862Z,1005.25
2023-04-14T10:06:47.911Z,1005.24
2023-04-14T10:07:47.919Z,1005.18
2023-04-14T10:08:47.948Z,1005.20
2023-04-14T10:09:47.981Z,1005.15
2023-04-14T10:10:48.010Z,1005.15
2023-04-14T10:11:48.343Z,1005.15
2023-04-14T10:12:48.068Z,1005.14
2023-04-14T10:13:48.097Z,1005.14
2023-04-14T10:14:48.143Z,1005.11
2023-04-14T10:15:48.177Z,1005.08
2023-04-14T10:16:48.188Z,1005.11
2023-04-14T10:17:48.243Z,1005.08
2023-04-14T10:18:48.656Z,1005.03
2023-04-14T10:19:48.284Z,1005.05
2023-04-14T10:20:48.308Z,1004.98
2023-04-14T10:21:48.369Z,1004.96
2023-04-14T10:22:48.399Z,1004.90
2023-04-14T10:23:48.427Z,1004.92
2023-04-14T10:24:48.432Z,1004.92
2023-04-14T10:25:48.472Z,1004.87
2023-04-14T10:27:48.525Z,1004.82
2023-04-14T10:28:48.558Z,1004.85
2023-04-14T10:29:48.579Z,1004.82
2023-04-14T10:30:48.611Z,1004.83
2023-04-14T10:31:48.726Z,1004.82
2023-04-14T10:32:48.731Z,1004.82
2023-04-14T10:33:48.780Z,1004.83
2023-04-14T10:34:48.732Z,1004.82
2023-04-14T10:35:48.764Z,1004.77
2023-04-14T10:36:48.797Z,1004.79
2023-04-14T10:37:49.073Z,1004.81
2023-04-14T10:38:48.881Z,1004.78
2023-04-14T10:39:48.878Z,1004.78
2023-04-14T10:40:48.918Z,1004.76
2023-04-14T10:41:49.020Z,1004.73
2023-04-14T10:42:48.978Z,1004.72
2023-04-14T10:43:49.253Z,1004.71
2023-04-14T10:44:49.036Z,1004.65
2023-04-14T10:45:49.557Z,1004.62
2023-04-14T10:46:49.143Z,1004.60
2023-04-14T10:47:49.147Z,1004.63
2023-04-14T10:48:49.155Z,1004.59
2023-04-14T10:49:49.489Z,1004.61
2023-04-14T10:51:49.931Z,1004.58
2023-04-14T10:52:49.277Z,1004.61
2023-04-14T10:53:49.313Z,1004.61
2023-04-14T10:54:49.354Z,1004.59
2023-04-14T10:55:52.344Z,1004.53
2023-04-14T10:56:49.695Z,1004.54
2023-04-14T10:57:49.433Z,1004.54
2023-04-14T10:58:49.456Z,1004.55
2023-04-14T10:59:49.488Z,1004.53
2023-04-14T11:00:49.551Z,1004.55
2023-04-14T11:01:49.607Z,1004.46
2023-04-14T11:02:49.682Z,1004.48
2023-04-14T11:03:49.983Z,1004.46
2023-04-14T11:04:49.644Z,1004.40
2023-04-14T11:05:49.669Z,1004.39
2023-04-14T11:06:49.703Z,1004.42
2023-04-14T11:07:49.734Z,1004.39
2023-04-14T11:08:49.770Z,1004.39
2023-04-14T11:09:49.816Z,1004.37
2023-04-14T11:10:50.103Z,1004.36
2023-04-14T11:11:49.854Z,1004.37
2023-04-14T11:13:49.913Z,1004.30
2023-04-14T11:14:49.943Z,1004.36
2023-04-14T11:15:49.975Z,1004.36
2023-04-14T11:17:02.484Z,1004.33
2023-04-14T11:17:50.164Z,1004.34
2023-04-14T11:18:50.069Z,1004.35
2023-04-14T11:19:50.099Z,1004.38
2023-04-14T11:20:50.132Z,1004.35
2023-04-14T11:21:50.274Z,1004.32
2023-04-14T11:22:50.204Z,1004.33
2023-04-14T11:23:50.520Z,1004.34
2023-04-14T11:24:50.248Z,1004.35
2023-04-14T11:25:50.280Z,1004.35
2023-04-14T11:26:50.334Z,1004.30
2023-04-14T11:27:50.356Z,1004.35
2023-04-14T11:28:50.371Z,1004.36
2023-04-14T11:29:50.423Z,1004.31
2023-04-14T11:30:50.736Z,1004.33
2023-04-14T11:31:50.583Z,1004.31
2023-04-14T11:32:50.532Z,1004.30
2023-04-14T11:33:50.529Z,1004.26
2023-04-14T11:34:50.559Z,1004.24
2023-04-14T11:35:50.684Z,1004.22
2023-04-14T11:36:50.627Z,1004.26
2023-04-14T11:37:50.965Z,1004.24
2023-04-14T11:38:50.687Z,1004.20
2023-04-14T11:39:50.715Z,1004.17
2023-04-14T11:40:50.766Z,1004.23
2023-04-14T11:41:50.781Z,1004.20
2023-04-14T11:42:50.821Z,1004.17
2023-04-14T11:43:50.844Z,1004.19
2023-04-14T11:44:51.111Z,1004.21
2023-04-14T11:45:50.920Z,1004.11
2023-04-14T11:46:50.920Z,1004.20
2023-04-14T11:47:50.970Z,1004.19
2023-04-14T11:48:50.986Z,1004.13
2023-04-14T11:49:51.019Z,1004.11
2023-04-14T11:50:51.056Z,1004.15
2023-04-14T11:51:51.390Z,1004.21
2023-04-14T11:52:51.111Z,1004.17
2023-04-14T11:53:51.138Z,1004.18
2023-04-14T11:54:51.259Z,1004.18
2023-04-14T11:56:51.242Z,1004.19
2023-04-14T11:57:51.273Z,1004.18
2023-04-14T11:58:51.617Z,1004.19
2023-04-14T11:59:51.325Z,1004.14
2023-04-14T12:00:52.992Z,1004.13
2023-04-14T12:01:51.429Z,1004.15
2023-04-14T12:02:51.621Z,1004.09
2023-04-14T12:03:51.620Z,1004.07
2023-04-14T12:04:51.831Z,1004.07
2023-04-14T12:05:51.820Z,1004.03
2023-04-14T12:06:52.274Z,1004.03
2023-04-14T12:07:51.673Z,1004.04
2023-04-14T12:08:51.606Z,1004.00
2023-04-14T12:09:51.660Z,1004.03
2023-04-14T12:10:51.699Z,1004.03
2023-04-14T12:11:51.947Z,1003.99
2023-04-14T12:12:51.738Z,1003.99
2023-04-14T12:13:51.768Z,1003.95
2023-04-14T12:14:51.917Z,1003.98
2023-04-14T12:15:51.869Z,1003.92
2023-04-14T12:16:51.864Z,1003.93
2023-04-14T12:17:53.123Z,1003.94
2023-04-14T12:18:51.920Z,1003.93
2023-04-14T12:19:51.948Z,1003.93
2023-04-14T12:20:51.990Z,1003.93
2023-04-14T12:21:52.061Z,1003.90
2023-04-14T12:22:52.036Z,1003.91
2023-04-14T12:23:52.322Z,1003.84
2023-04-14T12:24:52.095Z,1003.87
2023-04-14T12:25:52.140Z,1003.89
2023-04-14T12:27:53.100Z,1003.85
2023-04-14T12:28:52.877Z,1003.84
2023-04-14T12:29:52.277Z,1003.83
2023-04-14T12:30:52.603Z,1003.84
2023-04-14T12:31:52.375Z,1003.79
2023-04-14T12:32:52.362Z,1003.83
2023-04-14T12:33:53.790Z,1003.82
2023-04-14T12:34:52.425Z,1003.81
2023-04-14T12:37:52.806Z,1003.82
2023-04-14T12:38:52.545Z,1003.82
2023-04-14T12:40:52.596Z,1003.80
2023-04-14T12:41:52.650Z,1003.80
2023-04-14T12:43:52.998Z,1003.78
2023-04-14T12:44:52.726Z,1003.75
2023-04-14T12:45:52.753Z,1003.72
2023-04-14T12:46:52.953Z,1003.71
2023-04-14T12:47:52.899Z,1003.69
2023-04-14T12:48:52.847Z,1003.71
2023-04-14T12:49:52.875Z,1003.71
2023-04-14T12:50:53.201Z,1003.68
2023-04-14T12:51:52.950Z,1003.65
2023-04-14T12:52:52.963Z,1003.67
2023-04-14T12:53:53.002Z,1003.66
2023-04-14T12:54:53.035Z,1003.61
2023-04-14T12:55:53.060Z,1003.62
2023-04-14T12:56:53.200Z,1003.62
2023-04-14T12:57:53.439Z,1003.59
2023-04-14T12:58:53.162Z,1003.62
2023-04-14T12:59:53.187Z,1003.54
2023-04-14T13:00:53.239Z,1003.55
2023-04-14T13:01:53.316Z,1003.59
2023-04-14T13:02:53.424Z,1003.60
2023-04-14T13:03:53.492Z,1003.66
2023-04-14T13:04:53.645Z,1003.59
2023-04-14T13:05:53.380Z,1003.56
2023-04-14T13:06:53.400Z,1003.56
2023-04-14T13:08:53.515Z,1003.50
2023-04-14T13:09:53.512Z,1003.48
2023-04-14T13:10:53.539Z,1003.46
2023-04-14T13:11:53.870Z,1003.48
2023-04-14T13:12:53.598Z,1003.45
2023-04-14T13:13:53.933Z,1003.43
2023-04-14T13:14:53.650Z,1003.39
2023-04-14T13:16:54.709Z,1003.41
2023-04-14T13:17:53.760Z,1003.38
2023-04-14T13:18:54.101Z,1003.38
2023-04-14T13:19:53.825Z,1003.36
2023-04-14T13:20:53.837Z,1003.36
2023-04-14T13:21:53.872Z,1003.35
2023-04-14T13:22:53.897Z,1003.35
2023-04-14T13:23:53.938Z,1003.30
2023-04-14T13:24:53.957Z,1003.33
2023-04-14T13:25:54.248Z,1003.33
2023-04-14T13:26:54.031Z,1003.29
2023-04-14T13:27:54.068Z,1003.31
2023-04-14T13:28:54.089Z,1003.33
2023-04-14T13:29:54.151Z,1003.33
2023-04-14T13:30:54.147Z,1003.35
2023-04-14T13:31:54.456Z,1003.36
2023-04-14T13:32:54.271Z,1003.40
2023-04-14T13:33:54.259Z,1003.41
2023-04-14T13:34:54.300Z,1003.35
2023-04-14T13:35:54.314Z,1003.40
2023-04-14T13:36:54.347Z,1003.39
2023-04-14T13:37:54.729Z,1003.35
2023-04-14T13:38:54.411Z,1003.40
2023-04-14T13:39:54.439Z,1003.33
2023-04-14T13:40:54.483Z,1003.27
2023-04-14T13:41:54.501Z,1003.25
2023-04-14T13:42:54.538Z,1003.28
2023-04-14T13:43:54.886Z,1003.27
2023-04-14T13:44:54.593Z,1003.29
2023-04-14T13:45:54.706Z,1003.35
2023-04-14T13:46:54.704Z,1003.40